createdAt,value
2018-03-25T00:01:03.836Z,7.92
2018-03-25T00:06:04.351Z,7.93
2018-03-25T00:11:04.331Z,7.93
2018-03-25T00:16:04.222Z,7.93
2018-03-25T00:21:03.752Z,7.94
2018-03-25T00:26:03.911Z,7.96
2018-03-25T00:31:04.231Z,7.97
2018-03-25T00:36:03.716Z,7.96
2018-03-25T00:41:04.367Z,7.97
2018-03-25T00:46:03.598Z,7.96
2018-03-25T00:51:04.024Z,7.96
2018-03-25T00:56:04.290Z,7.96
2018-03-25T01:01:04.584Z,7.96
2018-03-25T01:06:04.062Z,7.98
2018-03-25T01:11:03.660Z,7.99
2018-03-25T01:16:03.928Z,7.98
2018-03-25T01:21:04.413Z,7.97
2018-03-25T01:26:03.662Z,7.98
2018-03-25T01:31:03.997Z,7.97
2018-03-25T01:36:04.451Z,7.97
2018-03-25T01:41:04.551Z,7.97
2018-03-25T01:46:04.388Z,7.97
2018-03-25T01:51:04.414Z,7.97
2018-03-25T01:56:04.012Z,7.97
2018-03-25T02:01:04.327Z,7.97
2018-03-25T02:06:03.822Z,7.97
2018-03-25T02:11:04.424Z,7.97
2018-03-25T02:16:03.724Z,7.95
2018-03-25T02:21:04.280Z,7.95
2018-03-25T02:26:04.455Z,7.96
2018-03-25T02:31:03.797Z,7.96
2018-03-25T02:36:04.266Z,7.95
2018-03-25T02:41:03.849Z,7.95
2018-03-25T02:46:04.113Z,7.95
2018-03-25T02:51:04.613Z,7.95
2018-03-25T02:56:03.846Z,7.94
2018-03-25T03:01:04.156Z,7.95
2018-03-25T03:06:04.627Z,7.94
2018-03-25T03:11:04.251Z,7.94
2018-03-25T03:16:04.480Z,7.93
2018-03-25T03:21:04.012Z,7.92
2018-03-25T03:26:04.289Z,7.92
2018-03-25T03:31:04.627Z,7.94
2018-03-25T03:36:04.068Z,7.94
2018-03-25T03:41:03.670Z,7.94
2018-03-25T03:46:03.959Z,7.93
2018-03-25T03:51:04.391Z,7.94
2018-03-25T03:56:03.677Z,7.71
2018-03-25T04:01:03.930Z,7.79
2018-03-25T04:06:04.433Z,7.83
2018-03-25T04:11:04.002Z,7.82
2018-03-25T04:16:04.322Z,7.80
2018-03-25T04:21:03.811Z,7.82
2018-03-25T04:26:04.351Z,7.82
2018-03-25T04:31:03.682Z,7.81
2018-03-25T04:36:04.158Z,7.83
2018-03-25T04:41:03.732Z,7.83
2018-03-25T04:46:04.042Z,7.85
2018-03-25T04:51:03.743Z,7.84
2018-03-25T04:56:04.147Z,7.84
2018-03-25T05:01:04.245Z,7.84
2018-03-25T05:06:03.706Z,7.86
2018-03-25T05:11:04.253Z,7.84
2018-03-25T05:16:04.554Z,7.83
2018-03-25T05:21:04.051Z,7.83
2018-03-25T05:26:04.237Z,7.82
2018-03-25T05:31:04.547Z,7.84
2018-03-25T05:36:04.000Z,7.82
2018-03-25T05:41:03.644Z,7.84
2018-03-25T05:46:03.902Z,7.84
2018-03-25T05:51:04.358Z,7.84
2018-03-25T05:56:03.620Z,7.85
2018-03-25T06:01:03.920Z,7.84
2018-03-25T06:06:04.381Z,7.84
2018-03-25T06:11:03.930Z,7.84
2018-03-25T06:16:04.354Z,7.84
2018-03-25T06:21:03.846Z,7.83
2018-03-25T06:26:03.998Z,7.83
2018-03-25T06:31:04.311Z,7.84
2018-03-25T06:36:03.821Z,7.84
2018-03-25T06:41:04.347Z,7.84
2018-03-25T06:46:03.630Z,7.84
2018-03-25T06:51:04.152Z,7.83
2018-03-25T06:56:04.322Z,7.83
2018-03-25T07:01:03.698Z,7.82
2018-03-25T07:06:04.110Z,7.84
2018-03-25T07:11:03.705Z,7.84
2018-03-25T07:16:03.972Z,7.80
2018-03-25T07:21:04.498Z,7.75
2018-03-25T07:26:03.733Z,7.73
2018-03-25T07:31:04.002Z,6.99
2018-03-25T07:36:04.444Z,7.63
2018-03-25T07:41:04.040Z,7.62
2018-03-25T07:46:04.366Z,7.63
2018-03-25T07:51:03.777Z,7.72
2018-03-25T07:56:04.640Z,6.97
2018-03-25T08:01:04.977Z,7.30
2018-03-25T08:06:04.431Z,6.78
2018-03-25T08:11:04.353Z,6.73
2018-03-25T08:16:03.670Z,6.81
2018-03-25T08:21:04.803Z,6.89
2018-03-25T08:26:04.977Z,6.96
2018-03-25T08:31:04.115Z,7.04
2018-03-25T08:36:04.165Z,7.13
2018-03-25T08:41:03.741Z,7.43
2018-03-25T08:46:04.049Z,7.31
2018-03-25T08:51:05.364Z,7.43
2018-03-25T08:56:03.770Z,7.42
2018-03-25T09:01:04.014Z,7.47
2018-03-25T09:06:04.446Z,7.52
2018-03-25T09:11:04.048Z,7.54
2018-03-25T09:16:04.642Z,7.56
2018-03-25T09:21:03.872Z,7.61
2018-03-25T09:26:04.061Z,7.63
2018-03-25T09:31:04.362Z,7.64
2018-03-25T09:36:04.824Z,7.67
2018-03-25T09:41:05.793Z,7.68
2018-03-25T09:46:03.964Z,7.70
2018-03-25T09:51:05.714Z,7.72
2018-03-25T09:56:05.831Z,7.73
2018-03-25T10:01:04.675Z,7.76
2018-03-25T10:06:04.805Z,7.76
2018-03-25T10:11:04.138Z,7.78
2018-03-25T10:16:05.196Z,7.79
2018-03-25T10:21:04.918Z,7.78
2018-03-25T10:26:05.227Z,7.80
2018-03-25T10:31:04.146Z,7.80
2018-03-25T10:36:04.520Z,7.81
2018-03-25T10:41:05.332Z,7.82
2018-03-25T10:46:04.274Z,7.83
2018-03-25T10:51:05.400Z,7.35
2018-03-25T10:56:04.214Z,7.85
2018-03-25T11:01:05.356Z,7.88
2018-03-25T11:06:05.318Z,7.88
2018-03-25T11:11:04.545Z,7.92
2018-03-25T11:16:03.604Z,7.95
2018-03-25T11:21:04.155Z,7.99
2018-03-25T11:26:05.899Z,8.00
2018-03-25T11:31:05.282Z,8.01
2018-03-25T11:36:05.620Z,8.05
2018-03-25T11:41:04.191Z,8.01
2018-03-25T11:46:03.971Z,7.59
2018-03-25T11:51:05.233Z,7.32
2018-03-25T11:56:05.343Z,6.80
2018-03-25T12:01:04.301Z,6.99
2018-03-25T12:06:05.198Z,7.03
2018-03-25T12:11:05.372Z,6.32
2018-03-25T12:16:05.276Z,6.35
2018-03-25T12:21:03.852Z,5.94
2018-03-25T12:26:04.060Z,6.07
2018-03-25T12:31:04.590Z,6.04
2018-03-25T12:36:03.808Z,4.90
2018-03-25T12:41:04.353Z,3.97
2018-03-25T12:46:03.695Z,4.25
2018-03-25T12:51:04.588Z,4.74
2018-03-25T12:56:04.348Z,3.86
2018-03-25T13:01:04.555Z,4.39
2018-03-25T13:06:05.908Z,4.39
2018-03-25T13:11:04.500Z,4.83
2018-03-25T13:16:05.192Z,5.10
2018-03-25T13:21:05.871Z,5.60
2018-03-25T13:26:05.855Z,5.64
2018-03-25T13:31:05.887Z,5.67
2018-03-25T13:36:04.864Z,6.09
2018-03-25T13:41:05.866Z,6.25
2018-03-25T13:46:04.904Z,6.47
2018-03-25T13:51:04.827Z,6.57
2018-03-25T13:56:05.120Z,6.66
2018-03-25T14:01:04.558Z,6.74
2018-03-25T14:06:04.470Z,6.86
2018-03-25T14:11:05.011Z,6.99
2018-03-25T14:16:03.945Z,7.07
2018-03-25T14:21:04.442Z,7.01
2018-03-25T14:26:05.027Z,6.98
2018-03-25T14:31:04.204Z,7.12
2018-03-25T14:36:04.223Z,7.13
2018-03-25T14:41:04.039Z,7.10
2018-03-25T14:46:05.342Z,7.15
2018-03-25T14:51:04.728Z,7.11
2018-03-25T14:56:05.388Z,7.16
2018-03-25T15:01:04.926Z,7.42
2018-03-25T15:06:04.601Z,7.25
2018-03-25T15:11:04.200Z,7.31
2018-03-25T15:16:04.631Z,7.32
2018-03-25T15:21:05.589Z,7.31
2018-03-25T15:26:05.812Z,7.25
2018-03-25T15:31:06.043Z,7.43
2018-03-25T15:36:05.655Z,7.30
2018-03-25T15:41:06.362Z,6.69
2018-03-25T15:46:05.525Z,7.12
2018-03-25T15:51:05.980Z,7.18
2018-03-25T15:56:06.309Z,7.14
2018-03-25T16:01:06.023Z,7.09
2018-03-25T16:06:05.919Z,7.16
2018-03-25T16:11:05.592Z,7.22
2018-03-25T16:16:06.078Z,7.22
2018-03-25T16:21:06.468Z,7.16
2018-03-25T16:26:05.535Z,7.19
2018-03-25T16:31:06.010Z,7.10
2018-03-25T16:36:06.965Z,7.08
2018-03-25T16:41:05.941Z,7.02
2018-03-25T16:46:06.253Z,7.05
2018-03-25T16:51:06.772Z,7.06
2018-03-25T16:56:05.987Z,6.96
2018-03-25T17:01:07.462Z,6.95
2018-03-25T17:06:06.179Z,7.04
2018-03-25T17:11:06.367Z,7.13
2018-03-25T17:16:05.648Z,7.09
2018-03-25T17:21:06.191Z,7.15
2018-03-25T17:26:06.351Z,7.06
2018-03-25T17:31:06.788Z,7.11
2018-03-25T17:36:06.145Z,6.98
2018-03-25T17:41:05.652Z,6.93
2018-03-25T17:46:06.468Z,6.93
2018-03-25T17:51:06.434Z,6.91
2018-03-25T17:56:06.058Z,6.95
2018-03-25T18:01:06.076Z,6.89
2018-03-25T18:06:06.477Z,6.83
2018-03-25T18:11:11.012Z,6.95
2018-03-25T18:16:06.310Z,6.94
2018-03-25T18:21:05.766Z,6.91
2018-03-25T18:26:06.301Z,6.92
2018-03-25T18:31:06.695Z,6.87
2018-03-25T18:36:06.395Z,6.91
2018-03-25T18:41:05.494Z,6.94
2018-03-25T18:46:05.738Z,6.91
2018-03-25T18:51:06.269Z,6.86
2018-03-25T18:56:05.999Z,6.89
2018-03-25T19:01:05.804Z,6.80
2018-03-25T19:06:06.261Z,6.89
2018-03-25T19:11:05.849Z,6.90
2018-03-25T19:16:07.194Z,6.94
2018-03-25T19:21:07.208Z,7.00
2018-03-25T19:26:05.801Z,7.12
2018-03-25T19:31:06.676Z,7.09
2018-03-25T19:36:06.607Z,7.13
2018-03-25T19:41:06.244Z,7.14
2018-03-25T19:46:05.557Z,7.19
2018-03-25T19:51:06.544Z,6.86
2018-03-25T19:56:06.352Z,6.79
2018-03-25T20:01:05.609Z,7.01
2018-03-25T20:11:06.273Z,7.70
2018-03-25T20:16:06.915Z,7.10
2018-03-25T20:21:08.072Z,7.56
2018-03-25T20:26:06.567Z,7.60
2018-03-25T20:31:06.735Z,7.53
2018-03-25T20:36:06.388Z,7.50
2018-03-25T20:41:06.601Z,7.44
2018-03-25T20:46:05.602Z,7.39
2018-03-25T20:51:06.947Z,7.37
2018-03-25T20:56:06.158Z,7.34
2018-03-25T21:01:05.600Z,7.32
2018-03-25T21:06:05.951Z,7.25
2018-03-25T21:11:05.662Z,7.32
2018-03-25T21:16:05.851Z,7.22
2018-03-25T21:21:06.228Z,7.22
2018-03-25T21:26:05.555Z,7.16
2018-03-25T21:31:05.869Z,7.17
2018-03-25T21:36:06.244Z,7.11
2018-03-25T21:41:05.813Z,7.08
2018-03-25T21:46:07.065Z,7.07
2018-03-25T21:51:05.362Z,7.04
2018-03-25T21:56:07.467Z,6.97
2018-03-25T22:01:05.926Z,6.94
2018-03-25T22:06:05.197Z,6.94
2018-03-25T22:11:05.470Z,6.91
2018-03-25T22:16:03.716Z,6.91
2018-03-25T22:21:04.336Z,6.92
2018-03-25T22:26:04.581Z,7.22
2018-03-25T22:31:03.950Z,7.21
2018-03-25T22:36:04.210Z,7.27
2018-03-25T22:41:03.783Z,7.30
2018-03-25T22:46:04.080Z,7.35
2018-03-25T22:51:04.675Z,7.37
2018-03-25T22:56:03.758Z,7.41
2018-03-25T23:01:04.105Z,7.43
2018-03-25T23:06:04.512Z,7.46
2018-03-25T23:11:04.114Z,7.50
2018-03-25T23:16:04.407Z,7.52
2018-03-25T23:21:04.492Z,7.55
2018-03-25T23:26:04.779Z,7.56
2018-03-25T23:31:06.052Z,7.58
2018-03-25T23:36:04.184Z,7.60
2018-03-25T23:41:05.209Z,7.62
2018-03-25T23:46:04.037Z,7.64
2018-03-25T23:51:04.773Z,7.66
2018-03-25T23:56:06.267Z,7.68
